Buoy 13569

sailwx.info

Track history (hours):
 
Tides and Currents Weather Stations Pressure Air Temp Water Temp Dewpoint Dewpoint Depression Visibility Wind Speed Wind Dir Waves Ship Positions

Drifting buoy 13569

Last reported at 2014-Nov-22 16:00 UTC. Time now 2014-Nov-22 16:51 UTC.
Position N 32°38' W 029°44'.

Barometer 1022.9 mb
Water temperature 21.4 ° C

Date/timePositionNaut miles runAvg speedWind from/ knotsBaromVisibWave heightAir tempDewpointWater temp
2014-Nov-22 16:00N 32°38' W 029°44'0 0.0 1022.9 21.4
2014-Nov-22 15:00N 32°38' W 029°44'4 0.8 1023.0 21.4
2014-Nov-22 10:00N 32°41' W 029°47'0 0.2 1023.2 21.4
2014-Nov-22 09:00N 32°42' W 029°47'0 0.2 1022.7 21.3
2014-Nov-22 08:00N 32°41' W 029°47'0 0.0 1022.0 21.4
2014-Nov-22 06:00N 32°41' W 029°47'1 0.7 1021.2 21.4
2014-Nov-22 05:00N 32°41' W 029°48'0 0.2 1021.4 21.4
2014-Nov-22 04:00N 32°41' W 029°47'2 0.6 1021.2 21.4
2014-Nov-22 00:00N 32°43' W 029°45'0 0.0 1021.5 21.4
2014-Nov-21 21:00N 32°43' W 029°45'0 0.3 1020.7 21.4
2014-Nov-21 20:00N 32°43' W 029°45'1 0.6 1020.2 21.4
2014-Nov-21 18:00N 32°44' W 029°44'0 0.0 1019.0 21.4
2014-Nov-21 16:00N 32°44' W 029°44'2 1.0 1018.5 21.4
2014-Nov-21 14:00N 32°46' W 029°46'1 0.3 1018.9 21.4
2014-Nov-21 12:00N 32°46' W 029°46'1 1.2 1019.5 21.4
2014-Nov-21 11:00N 32°47' W 029°46'1 0.2 1019.4 21.4
2014-Nov-21 08:00N 32°47' W 029°46'1 0.7 1018.2 21.4
2014-Nov-21 06:00N 32°48' W 029°46'1 1.2 1017.0 21.5
2014-Nov-21 05:00N 32°47' W 029°45'0 0.0 1017.0 21.5
2014-Nov-21 03:00N 32°47' W 029°45'0 0.0 1016.7 21.5
2014-Nov-20 23:00N 32°47' W 029°45'1 0.8 1016.7 21.5
2014-Nov-20 22:00N 32°47' W 029°44'3 1.3 1016.9 21.5
2014-Nov-20 20:00N 32°49' W 029°43'1 0.8 1015.2 21.5
2014-Nov-20 19:00N 32°49' W 029°43'5 4.8 1014.9 21.5
2014-Nov-20 18:00N 32°53' W 029°43'0 0.0 1014.5 21.5
2014-Nov-20 16:00N 32°53' W 029°43'2 1.1 1013.7 21.5
2014-Nov-20 14:00N 32°54' W 029°46'1 0.4 1014.4 21.5
2014-Nov-20 11:00N 32°53' W 029°46'0 0.0 1015.7 21.5
2014-Nov-20 09:00N 32°53' W 029°46'0 0.0 1014.7 21.5
2014-Nov-20 08:00N 32°53' W 029°46'4 2.1 1014.5 21.5
2014-Nov-20 06:00N 32°57' W 029°46'0 0.0 1014.0 21.5
2014-Nov-19 23:00N 32°57' W 029°46'1 0.3 1016.2 21.6
2014-Nov-19 21:00N 32°56' W 029°46'0 0.2 1016.4 21.6
2014-Nov-19 20:00N 32°57' W 029°46'1 1.5 1016.0 21.6
2014-Nov-19 19:00N 32°56' W 029°44'1 0.5 1015.7 21.6
2014-Nov-19 18:00N 32°56' W 029°44'2 0.9 1015.7 21.6
2014-Nov-19 16:00N 32°58' W 029°44'4 0.9 1015.4 21.6
2014-Nov-19 12:00N 32°59' W 029°48'0 0.0 1016.0 21.6
2014-Nov-19 11:00N 32°59' W 029°48'0 0.0 1015.9 21.6
2014-Nov-19 09:00N 32°59' W 029°48'0 0.1 1017.5 21.6
2014-Nov-19 07:00N 32°60' W 029°48'1 1.2 1018.0 21.6
2014-Nov-19 06:00N 32°59' W 029°47'5 2.4 1018.2 21.6
2014-Nov-19 04:00N 33°04' W 029°46'0 0.0 1019.0 21.6
2014-Nov-18 23:00N 33°04' W 029°46'0 0.3 1020.0 21.7
2014-Nov-18 22:00N 33°04' W 029°46'1 0.2 1019.9 21.7
2014-Nov-18 18:00N 33°04' W 029°47'1 1.0 1019.2 21.7
2014-Nov-18 17:00N 33°05' W 029°48'0 0.3 1019.0 21.7
2014-Nov-18 16:00N 33°05' W 029°47'1 1.3 1019.2 21.8
2014-Nov-18 15:00N 33°07' W 029°48'1 1.3 1019.4 21.8
2014-Nov-18 14:00N 33°05' W 029°47'2 0.9 1020.2 21.8
2014-Nov-18 12:00N 33°07' W 029°48'3 2.6 1021.0 21.8
2014-Nov-18 11:00N 33°08' W 029°51'0 0.1 1020.9 21.8
2014-Nov-18 07:00N 33°08' W 029°51'0 0.2 1019.2 21.8
2014-Nov-18 05:00N 33°08' W 029°51'2 0.4 1019.4 21.8
2014-Nov-17 23:00N 33°10' W 029°49'2 1.8 1020.0 21.9
2014-Nov-17 22:00N 33°11' W 029°49'1 0.2 1019.2 21.9
2014-Nov-17 18:00N 33°12' W 029°49'1 0.8 1015.7 22.0
2014-Nov-17 17:00N 33°13' W 029°49'0 0.0 1015.5 22.0
2014-Nov-17 16:00N 33°13' W 029°49'0 0.0 1015.0 22.0
2014-Nov-17 15:00N 33°13' W 029°49'0 0.3 1014.5 22.0
2014-Nov-17 14:00N 33°13' W 029°48'1 0.6 1014.5 22.0
2014-Nov-17 12:00N 33°14' W 029°47'1 0.3 1015.0 22.0
2014-Nov-17 10:00N 33°14' W 029°47'0 0.0 1014.5 22.0
2014-Nov-17 07:00N 33°14' W 029°47'1 0.6 1013.2 22.0
2014-Nov-17 06:00N 33°15' W 029°47'0 0.0 1013.2 22.0
2014-Nov-17 05:00N 33°15' W 029°47'0 0.4 1013.5 22.0
2014-Nov-17 04:00N 33°15' W 029°47'0 0.4 1014.0 22.0
2014-Nov-17 03:00N 33°15' W 029°47'2 0.5 1014.2 22.0
2014-Nov-16 23:00N 33°14' W 029°46'1 0.6 1016.2 22.0
2014-Nov-16 22:00N 33°14' W 029°45'1 0.3 1016.0 22.0
2014-Nov-16 20:00N 33°14' W 029°46'0 0.0 1016.0 22.1
2014-Nov-16 18:00N 33°14' W 029°46'1 0.5 1015.7 22.1
2014-Nov-16 17:00N 33°14' W 029°45'0 0.0 1015.7 22.1
2014-Nov-16 16:00N 33°14' W 029°45'1 0.2 1016.0 22.1
2014-Nov-16 13:00N 33°13' W 029°45'0 0.1 1017.7 22.0
2014-Nov-16 12:00N 33°13' W 029°44'1 0.5 1018.2 22.0
2014-Nov-16 11:00N 33°13' W 029°45'0 0.2 1018.4 22.0
2014-Nov-16 10:00N 33°13' W 029°45'0 0.1 1018.0 21.9
2014-Nov-16 07:00N 33°13' W 029°45'1 0.2 1017.2 21.9
2014-Nov-16 04:00N 33°13' W 029°46'0 0.0 1017.4 22.0
2014-Nov-16 03:00N 33°13' W 029°46'1 0.3 1017.5 22.0
2014-Nov-15 23:00N 33°12' W 029°46'1 0.6 1018.9 22.0
2014-Nov-15 22:00N 33°13' W 029°46'0 0.0 1019.0 22.0
2014-Nov-15 21:00N 33°13' W 029°46'1 0.3 1019.0 22.0
2014-Nov-15 19:00N 33°13' W 029°46'2 0.5 1018.5 22.0
2014-Nov-15 15:00N 33°13' W 029°48'1 0.4 1018.7 22.1
2014-Nov-15 12:00N 33°12' W 029°49'1 1.0 1021.0 22.0
2014-Nov-15 11:00N 33°12' W 029°47'0 0.0 1021.2 22.0
2014-Nov-15 09:00N 33°12' W 029°47'1 0.5 1020.5 22.0
2014-Nov-15 07:00N 33°12' W 029°49'0 0.0 1019.7 22.0
2014-Nov-15 05:00N 33°12' W 029°49'0 0.0 1019.9 22.0
2014-Nov-15 04:00N 33°12' W 029°49'0 0.0 1020.4 22.0
2014-Nov-15 03:00N 33°12' W 029°49'0 0.0 1020.5 22.0
2014-Nov-14 23:00N 33°12' W 029°49'0 0.0 1021.0 22.0
2014-Nov-14 22:00N 33°12' W 029°49'1 0.3 1020.7 22.0
2014-Nov-14 19:00N 33°13' W 029°49'0 0.0 1019.7 22.0
2014-Nov-14 17:00N 33°13' W 029°49'0 0.1 1019.0 22.0
2014-Nov-14 15:00N 33°13' W 029°49'0 0.0 1018.9 22.1
2014-Nov-14 14:00N 33°13' W 029°49'1 0.4 1019.2 22.0
2014-Nov-14 12:00N 33°13' W 029°50'0 0.0 1020.2 22.0
2014-Nov-14 11:00N 33°13' W 029°50'0 0.0 1020.5 22.0
2014-Nov-14 10:00N 33°13' W 029°50'1 0.3 1020.2 21.9
2014-Nov-14 08:00N 33°13' W 029°50'1 0.4 1019.0 21.9
2014-Nov-14 06:00N 33°13' W 029°51'0 0.0 1018.7 22.0
2014-Nov-14 05:00N 33°13' W 029°51'0 0.3 1018.7 22.0
2014-Nov-14 04:00N 33°13' W 029°52'1 0.2 1018.9 22.0
2014-Nov-13 23:00N 33°13' W 029°51'1 0.8 1019.2 22.0
2014-Nov-13 22:00N 33°14' W 029°52'2 0.9 1018.7 22.0
2014-Nov-13 20:00N 33°16' W 029°52'0 0.0 1017.9 22.0
2014-Nov-13 19:00N 33°16' W 029°52'0 0.0 1017.4 22.0
2014-Nov-13 17:00N 33°16' W 029°52'0 0.0 1016.9 22.0
2014-Nov-13 16:00N 33°16' W 029°52'1 0.6 1016.7 22.1
2014-Nov-13 15:00N 33°16' W 029°52'1 0.3 1017.4 22.0
2014-Nov-13 12:00N 33°16' W 029°53'1 0.6 1018.4 22.0
2014-Nov-13 11:00N 33°17' W 029°53'1 0.8 1018.2 22.0
2014-Nov-13 10:00N 33°17' W 029°53'0 0.0 1017.4 22.0
2014-Nov-13 08:00N 33°17' W 029°53'1 0.8 1016.5 22.0
2014-Nov-13 07:00N 33°18' W 029°53'1 0.5 1016.2 21.9
2014-Nov-13 06:00N 33°18' W 029°53'1 0.3 1015.7 22.0
2014-Nov-13 04:00N 33°18' W 029°53'1 0.3 1016.0 22.0
2014-Nov-13 00:00N 33°19' W 029°53'0 0.0 1016.5 21.9
2014-Nov-12 23:00N 33°19' W 029°53'0 0.0 1016.7 21.9
2014-Nov-12 22:00N 33°19' W 029°53'2 0.5 1016.7 22.0
2014-Nov-12 18:00N 33°21' W 029°53'0 0.0 1016.2 22.0
2014-Nov-12 17:00N 33°21' W 029°53'0 0.0 1016.0 22.0
2014-Nov-12 16:00N 33°21' W 029°53'   1016.2 22.0
Track history (hours):
 
Tides and Currents Weather Stations Pressure Air Temp Water Temp Dewpoint Dewpoint Depression Visibility Wind Speed Wind Dir Waves Ship Positions

Drifting buoy 13569

Last reported at 2014-Nov-22 16:00 UTC. Time now 2014-Nov-22 16:51 UTC.
Position N 32°38' W 029°44'.

Barometer 1022.9 mb
Water temperature 21.4 ° C

Date/timePositionNaut miles runAvg speedWind from/ knotsBaromVisibWave heightAir tempDewpointWater temp
2014-Nov-22 16:00N 32°38' W 029°44'0 0.0 1022.9 21.4
2014-Nov-22 15:00N 32°38' W 029°44'4 0.8 1023.0 21.4
2014-Nov-22 10:00N 32°41' W 029°47'0 0.2 1023.2 21.4
2014-Nov-22 09:00N 32°42' W 029°47'0 0.2 1022.7 21.3
2014-Nov-22 08:00N 32°41' W 029°47'0 0.0 1022.0 21.4
2014-Nov-22 06:00N 32°41' W 029°47'1 0.7 1021.2 21.4
2014-Nov-22 05:00N 32°41' W 029°48'0 0.2 1021.4 21.4
2014-Nov-22 04:00N 32°41' W 029°47'2 0.6 1021.2 21.4
2014-Nov-22 00:00N 32°43' W 029°45'0 0.0 1021.5 21.4
2014-Nov-21 21:00N 32°43' W 029°45'0 0.3 1020.7 21.4
2014-Nov-21 20:00N 32°43' W 029°45'1 0.6 1020.2 21.4
2014-Nov-21 18:00N 32°44' W 029°44'0 0.0 1019.0 21.4
2014-Nov-21 16:00N 32°44' W 029°44'2 1.0 1018.5 21.4
2014-Nov-21 14:00N 32°46' W 029°46'1 0.3 1018.9 21.4
2014-Nov-21 12:00N 32°46' W 029°46'1 1.2 1019.5 21.4
2014-Nov-21 11:00N 32°47' W 029°46'1 0.2 1019.4 21.4
2014-Nov-21 08:00N 32°47' W 029°46'1 0.7 1018.2 21.4
2014-Nov-21 06:00N 32°48' W 029°46'1 1.2 1017.0 21.5
2014-Nov-21 05:00N 32°47' W 029°45'0 0.0 1017.0 21.5
2014-Nov-21 03:00N 32°47' W 029°45'0 0.0 1016.7 21.5
2014-Nov-20 23:00N 32°47' W 029°45'1 0.8 1016.7 21.5
2014-Nov-20 22:00N 32°47' W 029°44'3 1.3 1016.9 21.5
2014-Nov-20 20:00N 32°49' W 029°43'1 0.8 1015.2 21.5
2014-Nov-20 19:00N 32°49' W 029°43'5 4.8 1014.9 21.5
2014-Nov-20 18:00N 32°53' W 029°43'0 0.0 1014.5 21.5
2014-Nov-20 16:00N 32°53' W 029°43'2 1.1 1013.7 21.5
2014-Nov-20 14:00N 32°54' W 029°46'1 0.4 1014.4 21.5
2014-Nov-20 11:00N 32°53' W 029°46'0 0.0 1015.7 21.5
2014-Nov-20 09:00N 32°53' W 029°46'0 0.0 1014.7 21.5
2014-Nov-20 08:00N 32°53' W 029°46'4 2.1 1014.5 21.5
2014-Nov-20 06:00N 32°57' W 029°46'0 0.0 1014.0 21.5
2014-Nov-19 23:00N 32°57' W 029°46'1 0.3 1016.2 21.6
2014-Nov-19 21:00N 32°56' W 029°46'0 0.2 1016.4 21.6
2014-Nov-19 20:00N 32°57' W 029°46'1 1.5 1016.0 21.6
2014-Nov-19 19:00N 32°56' W 029°44'1 0.5 1015.7 21.6
2014-Nov-19 18:00N 32°56' W 029°44'2 0.9 1015.7 21.6
2014-Nov-19 16:00N 32°58' W 029°44'4 0.9 1015.4 21.6
2014-Nov-19 12:00N 32°59' W 029°48'0 0.0 1016.0 21.6
2014-Nov-19 11:00N 32°59' W 029°48'0 0.0 1015.9 21.6
2014-Nov-19 09:00N 32°59' W 029°48'0 0.1 1017.5 21.6
2014-Nov-19 07:00N 32°60' W 029°48'1 1.2 1018.0 21.6
2014-Nov-19 06:00N 32°59' W 029°47'5 2.4 1018.2 21.6
2014-Nov-19 04:00N 33°04' W 029°46'0 0.0 1019.0 21.6
2014-Nov-18 23:00N 33°04' W 029°46'0 0.3 1020.0 21.7
2014-Nov-18 22:00N 33°04' W 029°46'1 0.2 1019.9 21.7
2014-Nov-18 18:00N 33°04' W 029°47'1 1.0 1019.2 21.7
2014-Nov-18 17:00N 33°05' W 029°48'0 0.3 1019.0 21.7
2014-Nov-18 16:00N 33°05' W 029°47'1 1.3 1019.2 21.8
2014-Nov-18 15:00N 33°07' W 029°48'1 1.3 1019.4 21.8
2014-Nov-18 14:00N 33°05' W 029°47'2 0.9 1020.2 21.8
2014-Nov-18 12:00N 33°07' W 029°48'3 2.6 1021.0 21.8
2014-Nov-18 11:00N 33°08' W 029°51'0 0.1 1020.9 21.8
2014-Nov-18 07:00N 33°08' W 029°51'0 0.2 1019.2 21.8
2014-Nov-18 05:00N 33°08' W 029°51'2 0.4 1019.4 21.8
2014-Nov-17 23:00N 33°10' W 029°49'2 1.8 1020.0 21.9
2014-Nov-17 22:00N 33°11' W 029°49'1 0.2 1019.2 21.9
2014-Nov-17 18:00N 33°12' W 029°49'1 0.8 1015.7 22.0
2014-Nov-17 17:00N 33°13' W 029°49'0 0.0 1015.5 22.0
2014-Nov-17 16:00N 33°13' W 029°49'0 0.0 1015.0 22.0
2014-Nov-17 15:00N 33°13' W 029°49'0 0.3 1014.5 22.0
2014-Nov-17 14:00N 33°13' W 029°48'1 0.6 1014.5 22.0
2014-Nov-17 12:00N 33°14' W 029°47'1 0.3 1015.0 22.0
2014-Nov-17 10:00N 33°14' W 029°47'0 0.0 1014.5 22.0
2014-Nov-17 07:00N 33°14' W 029°47'1 0.6 1013.2 22.0
2014-Nov-17 06:00N 33°15' W 029°47'0 0.0 1013.2 22.0
2014-Nov-17 05:00N 33°15' W 029°47'0 0.4 1013.5 22.0
2014-Nov-17 04:00N 33°15' W 029°47'0 0.4 1014.0 22.0
2014-Nov-17 03:00N 33°15' W 029°47'2 0.5 1014.2 22.0
2014-Nov-16 23:00N 33°14' W 029°46'1 0.6 1016.2 22.0
2014-Nov-16 22:00N 33°14' W 029°45'1 0.3 1016.0 22.0
2014-Nov-16 20:00N 33°14' W 029°46'0 0.0 1016.0 22.1
2014-Nov-16 18:00N 33°14' W 029°46'1 0.5 1015.7 22.1
2014-Nov-16 17:00N 33°14' W 029°45'0 0.0 1015.7 22.1
2014-Nov-16 16:00N 33°14' W 029°45'1 0.2 1016.0 22.1
2014-Nov-16 13:00N 33°13' W 029°45'0 0.1 1017.7 22.0
2014-Nov-16 12:00N 33°13' W 029°44'1 0.5 1018.2 22.0
2014-Nov-16 11:00N 33°13' W 029°45'0 0.2 1018.4 22.0
2014-Nov-16 10:00N 33°13' W 029°45'0 0.1 1018.0 21.9
2014-Nov-16 07:00N 33°13' W 029°45'1 0.2 1017.2 21.9
2014-Nov-16 04:00N 33°13' W 029°46'0 0.0 1017.4 22.0
2014-Nov-16 03:00N 33°13' W 029°46'1 0.3 1017.5 22.0
2014-Nov-15 23:00N 33°12' W 029°46'1 0.6 1018.9 22.0
2014-Nov-15 22:00N 33°13' W 029°46'0 0.0 1019.0 22.0
2014-Nov-15 21:00N 33°13' W 029°46'1 0.3 1019.0 22.0
2014-Nov-15 19:00N 33°13' W 029°46'2 0.5 1018.5 22.0
2014-Nov-15 15:00N 33°13' W 029°48'1 0.4 1018.7 22.1
2014-Nov-15 12:00N 33°12' W 029°49'1 1.0 1021.0 22.0
2014-Nov-15 11:00N 33°12' W 029°47'0 0.0 1021.2 22.0
2014-Nov-15 09:00N 33°12' W 029°47'1 0.5 1020.5 22.0
2014-Nov-15 07:00N 33°12' W 029°49'0 0.0 1019.7 22.0
2014-Nov-15 05:00N 33°12' W 029°49'0 0.0 1019.9 22.0
2014-Nov-15 04:00N 33°12' W 029°49'0 0.0 1020.4 22.0
2014-Nov-15 03:00N 33°12' W 029°49'0 0.0 1020.5 22.0
2014-Nov-14 23:00N 33°12' W 029°49'0 0.0 1021.0 22.0
2014-Nov-14 22:00N 33°12' W 029°49'1 0.3 1020.7 22.0
2014-Nov-14 19:00N 33°13' W 029°49'0 0.0 1019.7 22.0
2014-Nov-14 17:00N 33°13' W 029°49'0 0.1 1019.0 22.0
2014-Nov-14 15:00N 33°13' W 029°49'0 0.0 1018.9 22.1
2014-Nov-14 14:00N 33°13' W 029°49'1 0.4 1019.2 22.0
2014-Nov-14 12:00N 33°13' W 029°50'0 0.0 1020.2 22.0
2014-Nov-14 11:00N 33°13' W 029°50'0 0.0 1020.5 22.0
2014-Nov-14 10:00N 33°13' W 029°50'1 0.3 1020.2 21.9
2014-Nov-14 08:00N 33°13' W 029°50'1 0.4 1019.0 21.9
2014-Nov-14 06:00N 33°13' W 029°51'0 0.0 1018.7 22.0
2014-Nov-14 05:00N 33°13' W 029°51'0 0.3 1018.7 22.0
2014-Nov-14 04:00N 33°13' W 029°52'1 0.2 1018.9 22.0
2014-Nov-13 23:00N 33°13' W 029°51'1 0.8 1019.2 22.0
2014-Nov-13 22:00N 33°14' W 029°52'2 0.9 1018.7 22.0
2014-Nov-13 20:00N 33°16' W 029°52'0 0.0 1017.9 22.0
2014-Nov-13 19:00N 33°16' W 029°52'0 0.0 1017.4 22.0
2014-Nov-13 17:00N 33°16' W 029°52'0 0.0 1016.9 22.0
2014-Nov-13 16:00N 33°16' W 029°52'1 0.6 1016.7 22.1
2014-Nov-13 15:00N 33°16' W 029°52'1 0.3 1017.4 22.0
2014-Nov-13 12:00N 33°16' W 029°53'1 0.6 1018.4 22.0
2014-Nov-13 11:00N 33°17' W 029°53'1 0.8 1018.2 22.0
2014-Nov-13 10:00N 33°17' W 029°53'0 0.0 1017.4 22.0
2014-Nov-13 08:00N 33°17' W 029°53'1 0.8 1016.5 22.0
2014-Nov-13 07:00N 33°18' W 029°53'1 0.5 1016.2 21.9
2014-Nov-13 06:00N 33°18' W 029°53'1 0.3 1015.7 22.0
2014-Nov-13 04:00N 33°18' W 029°53'1 0.3 1016.0 22.0
2014-Nov-13 00:00N 33°19' W 029°53'0 0.0 1016.5 21.9
2014-Nov-12 23:00N 33°19' W 029°53'0 0.0 1016.7 21.9
2014-Nov-12 22:00N 33°19' W 029°53'2 0.5 1016.7 22.0
2014-Nov-12 18:00N 33°21' W 029°53'0 0.0 1016.2 22.0
2014-Nov-12 17:00N 33°21' W 029°53'0 0.0 1016.0 22.0
2014-Nov-12 16:00N 33°21' W 029°53'   1016.2 22.0

Dump ship's entire track history